| time (UTC) | temp F | wind direction | speed MPH | gust MPH | rain 1hr in | rain 24hr in | rain mn in | humidity % | barometer mb |
| 20260504234443 | 68 | 214 | 3.0 | 13.0 | 0.00 | 0.11 | 0.11 | 57 | 996.6 |
| 20260504233942 | 68 | 223 | 3.0 | 13.0 | 0.00 | 0.11 | 0.11 | 56 | 996.9 |
| 20260504233702 | 69 | 248 | 7.0 | 11.0 | 0.00 | 0.11 | 0.11 | 56 | 997.2 |
| 20260504232942 | 68 | 242 | 4.0 | 7.0 | 0.00 | 0.11 | 0.11 | 54 | 997.2 |
| 20260504232653 | 64 | 272 | 3.0 | 5.0 | 0.11 | 0.11 | 0.11 | 69 | 996.9 |
| 20260504232648 | 74 | 298 | 4.0 | 14.0 | 0.00 | 0.00 | 0.00 | 41 | 997.2 |
| 20260504232642 | 78 | 261 | 6.0 | 10.0 | 0.00 | 0.00 | 0.00 | 34 | 997.2 |
| 20260504232629 | 79 | 239 | 4.0 | 10.0 | 0.00 | 0.00 | 0.00 | 35 | 997.6 |
| 20260504232614 | 78 | 254 | 3.0 | 8.0 | 0.00 | 0.00 | 0.00 | 33 | 997.6 |
| 20260504232605 | 78 | 205 | 4.0 | 9.0 | 0.00 | 0.00 | 0.00 | 37 | 998.4 |
| 20260504232547 | 79 | 233 | 6.0 | 14.0 | 0.00 | 0.00 | 0.00 | 28 | 998.4 |
| 20260504232452 | 65 | 258 | 7.0 | 8.0 | 0.11 | 0.11 | 0.11 | 61 | 997.2 |
| 20260504232445 | 68 | 237 | 4.0 | 5.0 | 0.01 | 0.11 | 0.11 | 52 | 997.2 |
| 20260504232320 | 64 | 266 | 0.0 | 6.0 | 0.11 | 0.11 | 0.11 | 71 | 996.9 |
| 20260504232312 | 64 | 306 | 3.0 | 6.0 | 0.11 | 0.11 | 0.11 | 67 | 996.9 |
| 20260504232308 | 64 | 286 | 4.0 | 6.0 | 0.11 | 0.11 | 0.11 | 66 | 997.2 |
| 20260504232300 | 62 | 352 | 3.0 | 13.0 | 0.11 | 0.11 | 0.11 | 74 | 997.9 |
| 20260504232255 | 61 | 248 | 5.0 | 13.0 | 0.11 | 0.11 | 0.11 | 82 | 998.4 |
| 20260504232249 | 62 | 262 | 3.0 | 10.0 | 0.10 | 0.10 | 0.11 | 78 | 997.6 |
| 20260504232245 | 64 | 239 | 3.0 | 18.0 | 0.10 | 0.10 | 0.10 | 73 | 997.2 |
| 20260504232229 | 74 | 0 | 3.0 | 18.0 | 0.04 | 0.04 | 0.06 | 50 | 998.4 |
| 20260504232112 | 75 | 229 | 14.0 | 14.0 | 0.00 | 0.00 | 0.00 | 42 | 997.2 |
| 20260504232107 | 76 | 278 | 4.0 | 8.0 | 0.00 | 0.00 | 0.00 | 38 | 997.2 |
| 20260504232058 | 77 | 240 | 4.0 | 10.0 | 0.00 | 0.00 | 0.00 | 36 | 996.9 |
| 20260504232044 | 67 | 257 | 2.0 | 5.0 | 0.07 | 0.11 | 0.11 | 53 | 996.9 |
| 20260504231925 | 78 | 266 | 5.0 | 10.0 | 0.00 | 0.00 | 0.00 | 34 | 997.2 |
| 20260504231921 | 78 | 241 | 8.0 | 10.0 | 0.00 | 0.00 | 0.00 | 36 | 997.2 |
| 20260504231759 | 78 | 274 | 9.0 | 11.0 | 0.00 | 0.00 | 0.00 | 34 | 997.2 |
| 20260504231752 | 79 | 249 | 7.0 | 11.0 | 0.00 | 0.00 | 0.00 | 34 | 997.2 |
| 20260504231748 | 79 | 300 | 4.0 | 9.0 | 0.00 | 0.00 | 0.00 | 34 | 997.2 |
| 20260504231740 | 78 | 276 | 3.0 | 9.0 | 0.00 | 0.00 | 0.00 | 34 | 997.6 |
| 20260504231729 | 78 | 332 | 4.0 | 11.0 | 0.00 | 0.00 | 0.00 | 36 | 997.2 |
| 20260504231721 | 78 | 249 | 3.0 | 11.0 | 0.00 | 0.00 | 0.00 | 34 | 997.6 |
| 20260504231717 | 78 | 240 | 5.0 | 11.0 | 0.00 | 0.00 | 0.00 | 34 | 997.6 |
| 20260504231711 | 78 | 247 | 4.0 | 11.0 | 0.00 | 0.00 | 0.00 | 34 | 997.6 |
| 20260504231706 | 78 | 242 | 7.0 | 11.0 | 0.00 | 0.00 | 0.00 | 35 | 997.9 |
| 20260504231657 | 78 | 225 | 4.0 | 9.0 | 0.00 | 0.00 | 0.00 | 34 | 997.9 |
| 20260504231539 | 79 | 275 | 6.0 | 8.0 | 0.00 | 0.00 | 0.00 | 35 | 997.9 |
| 20260504231526 | 67 | 246 | 3.0 | 7.0 | 0.11 | 0.11 | 0.11 | 56 | 996.9 |
| 20260504231407 | 78 | 245 | 3.0 | 9.0 | 0.00 | 0.00 | 0.00 | 31 | 997.9 |
| 20260504231401 | 78 | 237 | 8.0 | 9.0 | 0.00 | 0.00 | 0.00 | 33 | 997.9 |
| 20260504231354 | 78 | 207 | 3.0 | 11.0 | 0.00 | 0.00 | 0.00 | 30 | 998.4 |
| 20260504231349 | 79 | 296 | 3.0 | 11.0 | 0.00 | 0.00 | 0.00 | 33 | 997.9 |
| 20260504231343 | 79 | 234 | 4.0 | 11.0 | 0.00 | 0.00 | 0.00 | 29 | 998.4 |
| 20260504231338 | 79 | 243 | 9.0 | 11.0 | 0.00 | 0.00 | 0.00 | 31 | 998.4 |
| 20260504231325 | 80 | 265 | 4.0 | 9.0 | 0.00 | 0.00 | 0.00 | 29 | 998.4 |
| 20260504231320 | 79 | 194 | 2.0 | 14.0 | 0.00 | 0.00 | 0.00 | 30 | 998.4 |
| 20260504231158 | 79 | 63 | 2.0 | 10.0 | 0.00 | 0.00 | 0.00 | 28 | 998.4 |
| 20260504231152 | 79 | 260 | 2.0 | 9.0 | 0.00 | 0.00 | 0.00 | 30 | 998.4 |
| 20260504231148 | 78 | 251 | 4.0 | 9.0 | 0.00 | 0.00 | 0.00 | 31 | 998.4 |
| 20260504231140 | 77 | 226 | 5.0 | 11.0 | 0.00 | 0.00 | 0.00 | 32 | 998.7 |
| 20260504231128 | 77 | 265 | 3.0 | 11.0 | 0.00 | 0.00 | 0.00 | 32 | 998.7 |
| 20260504231121 | 77 | 248 | 5.0 | 10.0 | 0.00 | 0.00 | 0.00 | 31 | 999.0 |
| 20260504231117 | 78 | 268 | 3.0 | 13.0 | 0.00 | 0.00 | 0.00 | 32 | 999.0 |
| 20260504231110 | 77 | 260 | 4.0 | 13.0 | 0.00 | 0.00 | 0.00 | 32 | 999.0 |
| 20260504231106 | 76 | 272 | 5.0 | 13.0 | 0.00 | 0.00 | 0.00 | 34 | 999.0 |
| 20260504231058 | 77 | 259 | 5.0 | 15.0 | 0.00 | 0.00 | 0.00 | 32 | 999.0 |
| 20260504231053 | 78 | 288 | 8.0 | 15.0 | 0.00 | 0.00 | 0.00 | 34 | 999.0 |
| 20260504231046 | 77 | 245 | 7.0 | 11.0 | 0.00 | 0.00 | 0.00 | 33 | 999.0 |
| 20260504231042 | 77 | 234 | 4.0 | 11.0 | 0.00 | 0.00 | 0.00 | 32 | 999.0 |
| 20260504231028 | 77 | 203 | 11.0 | 15.0 | 0.00 | 0.00 | 0.00 | 34 | 999.0 |
| 20260504231020 | 67 | 227 | 4.0 | 8.0 | 0.11 | 0.11 | 0.11 | 57 | 996.9 |
| 20260504183411 | 77 | 294 | 6.0 | 15.0 | 0.00 | 0.00 | 0.00 | 33 | 999.0 |
| 20260504182914 | 77 | 215 | 4.0 | 9.0 | 0.00 | 0.00 | 0.00 | 36 | 999.0 |
| 20260504182638 | 76 | 253 | 5.0 | 8.0 | 0.00 | 0.00 | 0.00 | 39 | 999.0 |
| 20260504181911 | 76 | 278 | 5.0 | 8.0 | 0.00 | 0.00 | 0.00 | 34 | 999.4 |
| 20260504181410 | 76 | 260 | 4.0 | 11.0 | 0.00 | 0.00 | 0.00 | 36 | 999.4 |
| 20260504180912 | 76 | 245 | 7.0 | 11.0 | 0.00 | 0.00 | 0.00 | 35 | 999.0 |
| 20260504180409 | 76 | 222 | 5.0 | 11.0 | 0.00 | 0.00 | 0.00 | 36 | 999.4 |
| 20260504180133 | 75 | 188 | 2.0 | 11.0 | 0.00 | 0.00 | 0.00 | 35 | 999.4 |
| 20260504175408 | 75 | 292 | 5.0 | 15.0 | 0.00 | 0.00 | 0.00 | 40 | 999.4 |
| 20260504174909 | 75 | 273 | 3.0 | 15.0 | 0.00 | 0.00 | 0.00 | 39 | 999.4 |
| 20260504174407 | 75 | 203 | 5.0 | 8.0 | 0.00 | 0.00 | 0.00 | 38 | 999.7 |
| 20260504173907 | 74 | 268 | 5.0 | 8.0 | 0.00 | 0.00 | 0.00 | 39 | 999.7 |
| 20260504173406 | 74 | 259 | 4.0 | 15.0 | 0.00 | 0.00 | 0.00 | 38 | 1000.1 |
| 20260504172905 | 74 | 207 | 2.0 | 15.0 | 0.00 | 0.00 | 0.00 | 38 | 1000.1 |
| 20260504172406 | 74 | 248 | 7.0 | 11.0 | 0.00 | 0.00 | 0.00 | 39 | 1000.1 |
| 20260504172128 | 73 | 291 | 3.0 | 12.0 | 0.00 | 0.00 | 0.00 | 38 | 1000.1 |
| 20260504171403 | 73 | 271 | 4.0 | 12.0 | 0.00 | 0.00 | 0.00 | 40 | 1000.1 |
| 20260504170905 | 73 | 245 | 6.0 | 10.0 | 0.00 | 0.00 | 0.00 | 39 | 1000.1 |
| 20260504170403 | 73 | 262 | 4.0 | 10.0 | 0.00 | 0.00 | 0.00 | 40 | 1000.1 |
| 20260504160356 | 70 | 192 | 4.0 | 13.0 | 0.00 | 0.01 | 0.00 | 46 | 1001.1 |
| 20260504151109 | 68 | 234 | 4.0 | 11.0 | 0.00 | 0.02 | 0.00 | 50 | 1001.7 |
| 20260504150349 | 68 | 231 | 5.0 | 11.0 | 0.00 | 0.02 | 0.00 | 49 | 1001.7 |
| 20260504140844 | 62 | 182 | 2.0 | 6.0 | 0.00 | 0.02 | 0.00 | 57 | 1002.2 |
| 20260504140342 | 62 | 217 | 4.0 | 6.0 | 0.00 | 0.02 | 0.00 | 59 | 1002.2 |
| 20260504130336 | 55 | 193 | 2.0 | 8.0 | 0.00 | 0.02 | 0.00 | 70 | 1002.9 |
| 20260504110337 | 48 | 204 | 2.0 | 4.0 | 0.00 | 0.02 | 0.00 | 73 | 1003.2 |
| 20260504100317 | 53 | 171 | 1.0 | 5.0 | 0.00 | 0.02 | 0.00 | 63 | 1003.2 |
| 20260504081809 | 51 | 264 | 1.0 | 5.0 | 0.00 | 0.02 | 0.00 | 73 | 1003.2 |
| 20260504081307 | 51 | 239 | 1.0 | 4.0 | 0.00 | 0.02 | 0.00 | 72 | 1003.2 |
| 20260504080809 | 51 | 249 | 1.0 | 4.0 | 0.00 | 0.02 | 0.00 | 73 | 1003.2 |
| 20260504080524 | 50 | 238 | 3.0 | 4.0 | 0.00 | 0.02 | 0.00 | 75 | 1003.2 |
| 20260504070259 | 51 | 168 | 0.0 | 3.0 | 0.00 | 0.02 | 0.00 | 74 | 1003.9 |
| 20260504050748 | 53 | 217 | 2.0 | 4.0 | 0.00 | 0.02 | 0.00 | 73 | 1004.9 |
| 20260504050246 | 54 | 216 | 3.0 | 4.0 | 0.00 | 0.02 | 0.00 | 73 | 1004.9 |
| 20260504050006 | 54 | 193 | 2.0 | 6.0 | 0.00 | 0.02 | 0.02 | 72 | 1004.9 |
| 20260504045506 | 54 | 253 | 3.0 | 6.0 | 0.00 | 0.02 | 0.02 | 72 | 1005.2 |
| 20260504044748 | 54 | 200 | 2.0 | 5.0 | 0.00 | 0.02 | 0.02 | 71 | 1005.2 |
| 20260504044245 | 55 | 200 | 0.0 | 5.0 | 0.00 | 0.02 | 0.02 | 71 | 1005.2 |
| 20260504043745 | 55 | 187 | 2.0 | 6.0 | 0.00 | 0.02 | 0.02 | 70 | 1004.9 |
| 20260504043246 | 55 | 236 | 2.0 | 6.0 | 0.00 | 0.02 | 0.02 | 70 | 1005.2 |
| 20260504042744 | 55 | 207 | 2.0 | 4.0 | 0.00 | 0.02 | 0.02 | 69 | 1004.9 |
| 20260504042242 | 55 | 205 | 2.0 | 4.0 | 0.00 | 0.02 | 0.02 | 69 | 1005.2 |
| 20260504041743 | 55 | 237 | 4.0 | 4.0 | 0.00 | 0.02 | 0.02 | 69 | 1005.2 |
| 20260504041240 | 56 | 192 | 2.0 | 4.0 | 0.00 | 0.02 | 0.02 | 69 | 1004.9 |
| 20260504040742 | 56 | 216 | 4.0 | 4.0 | 0.00 | 0.02 | 0.02 | 68 | 1004.9 |
| 20260504040240 | 56 | 195 | 2.0 | 4.0 | 0.00 | 0.02 | 0.02 | 68 | 1004.9 |
| 20260504035740 | 56 | 230 | 4.0 | 5.0 | 0.00 | 0.02 | 0.02 | 68 | 1005.2 |
| 20260504035238 | 56 | 227 | 4.0 | 6.0 | 0.00 | 0.02 | 0.02 | 67 | 1004.9 |
| 20260504034739 | 56 | 224 | 2.0 | 6.0 | 0.00 | 0.02 | 0.02 | 67 | 1004.9 |
| 20260504034239 | 56 | 195 | 3.0 | 4.0 | 0.00 | 0.02 | 0.02 | 67 | 1004.9 |
| 20260504033738 | 57 | 204 | 2.0 | 5.0 | 0.00 | 0.02 | 0.02 | 66 | 1004.9 |
| 20260504033238 | 57 | 213 | 2.0 | 5.0 | 0.00 | 0.02 | 0.02 | 66 | 1004.9 |
| 20260504032737 | 57 | 207 | 2.0 | 5.0 | 0.00 | 0.02 | 0.02 | 66 | 1005.2 |
| 20260504032236 | 57 | 202 | 3.0 | 5.0 | 0.00 | 0.02 | 0.02 | 65 | 1004.9 |
| 20260504031737 | 58 | 210 | 2.0 | 4.0 | 0.00 | 0.02 | 0.02 | 65 | 1005.2 |
| 20260504031236 | 58 | 202 | 3.0 | 4.0 | 0.00 | 0.02 | 0.02 | 65 | 1005.2 |
| 20260504030735 | 58 | 183 | 2.0 | 5.0 | 0.00 | 0.02 | 0.02 | 64 | 1005.2 |
| 20260504030234 | 58 | 179 | 2.0 | 5.0 | 0.00 | 0.02 | 0.02 | 64 | 1005.2 |
| 20260504025737 | 58 | 217 | 3.0 | 5.0 | 0.00 | 0.02 | 0.02 | 65 | 1005.2 |
| 20260504025233 | 58 | 225 | 3.0 | 5.0 | 0.00 | 0.02 | 0.02 | 65 | 1005.2 |
| 20260504024733 | 58 | 227 | 2.0 | 3.0 | 0.00 | 0.02 | 0.02 | 65 | 1005.2 |
| 20260504024232 | 58 | 189 | 1.0 | 4.0 | 0.00 | 0.02 | 0.02 | 64 | 1005.2 |
| 20260504023732 | 58 | 215 | 2.0 | 4.0 | 0.00 | 0.02 | 0.02 | 63 | 1005.2 |
| 20260504023708 | 59 | 206 | 3.0 | 4.0 | 0.00 | 0.02 | 0.02 | 63 | 1005.2 |
| 20260504022733 | 59 | 203 | 2.0 | 4.0 | 0.00 | 0.02 | 0.02 | 63 | 1005.2 |
| 20260504022229 | 59 | 212 | 2.0 | 4.0 | 0.00 | 0.02 | 0.02 | 63 | 1005.2 |
| 20260504021732 | 59 | 213 | 2.0 | 4.0 | 0.00 | 0.02 | 0.02 | 63 | 1005.2 |
| 20260504021228 | 59 | 198 | 2.0 | 4.0 | 0.00 | 0.02 | 0.02 | 64 | 1005.2 |
| 20260504020730 | 59 | 192 | 2.0 | 5.0 | 0.00 | 0.02 | 0.02 | 63 | 1005.2 |
| 20260504020229 | 59 | 220 | 3.0 | 5.0 | 0.00 | 0.02 | 0.02 | 63 | 1005.2 |
| 20260504015957 | 59 | 213 | 0.0 | 6.0 | 0.00 | 0.02 | 0.02 | 62 | 1004.9 |
| 20260504015226 | 60 | 186 | 2.0 | 6.0 | 0.00 | 0.02 | 0.02 | 62 | 1004.9 |
| 20260504014728 | 60 | 230 | 3.0 | 5.0 | 0.00 | 0.02 | 0.02 | 62 | 1004.9 |
| 20260504014228 | 60 | 232 | 3.0 | 5.0 | 0.00 | 0.02 | 0.02 | 61 | 1004.9 |
| 20260504013726 | 60 | 167 | 0.0 | 4.0 | 0.00 | 0.02 | 0.02 | 61 | 1004.9 |
| 20260504013225 | 60 | 204 | 2.0 | 5.0 | 0.00 | 0.02 | 0.02 | 61 | 1004.6 |
| 20260504012725 | 60 | 238 | 2.0 | 5.0 | 0.00 | 0.02 | 0.02 | 60 | 1004.9 |
| 20260504012710 | 61 | 217 | 2.0 | 4.0 | 0.00 | 0.02 | 0.02 | 59 | 1004.9 |
| 20260504011723 | 61 | 225 | 3.0 | 4.0 | 0.00 | 0.02 | 0.02 | 59 | 1004.9 |
| 20260504011222 | 61 | 207 | 2.0 | 4.0 | 0.00 | 0.02 | 0.02 | 57 | 1004.9 |
| 20260504010723 | 62 | 222 | 2.0 | 4.0 | 0.00 | 0.02 | 0.02 | 58 | 1004.6 |
| 20260504010222 | 62 | 205 | 2.0 | 3.0 | 0.00 | 0.02 | 0.02 | 57 | 1004.6 |
| 20260504005721 | 62 | 193 | 2.0 | 3.0 | 0.00 | 0.02 | 0.02 | 56 | 1004.6 |
| 20260504005222 | 63 | 154 | 1.0 | 2.0 | 0.00 | 0.02 | 0.02 | 55 | 1004.6 |
| 20260504004722 | 64 | 207 | 2.0 | 3.0 | 0.00 | 0.02 | 0.02 | 53 | 1004.6 |
| 20260504004221 | 64 | 204 | 2.0 | 3.0 | 0.00 | 0.02 | 0.02 | 51 | 1004.6 |
| 20260504003719 | 65 | 220 | 1.0 | 4.0 | 0.00 | 0.02 | 0.02 | 50 | 1004.6 |
| 20260504003446 | 65 | 206 | 2.0 | 4.0 | 0.00 | 0.02 | 0.02 | 50 | 1004.6 |
| 20260504002719 | 65 | 204 | 1.0 | 4.0 | 0.00 | 0.02 | 0.02 | 49 | 1004.6 |
| 20260504002217 | 66 | 227 | 4.0 | 6.0 | 0.00 | 0.02 | 0.02 | 49 | 1004.6 |
| 20260504001719 | 66 | 228 | 2.0 | 6.0 | 0.00 | 0.02 | 0.02 | 48 | 1004.6 |
| 20260504001216 | 66 | 237 | 3.0 | 6.0 | 0.00 | 0.02 | 0.02 | 49 | 1004.9 |
| 20260504000716 | 66 | 237 | 3.0 | 5.0 | 0.00 | 0.02 | 0.02 | 49 | 1004.6 |
| 20260504000215 | 66 | 205 | 1.0 | 5.0 | 0.00 | 0.02 | 0.02 | 49 | 1004.9 |
| 20260503235715 | 67 | 247 | 1.0 | 7.0 | 0.00 | 0.02 | 0.02 | 49 | 1004.9 |
| 20260503235440 | 67 | 196 | 2.0 | 7.0 | 0.00 | 0.02 | 0.02 | 48 | 1004.9 |